sensor_id;sensor_type;location;lat;lon;timestamp;pressure;altitude;pressure_sealevel;temperature;humidity
64316;BME280;50652;51.482;-0.580;2023-05-27T00:01:24;102909.06;;;13.56;48.02
64316;BME280;50652;51.482;-0.580;2023-05-27T00:03:51;102909.07;;;13.20;48.73
64316;BME280;50652;51.482;-0.580;2023-05-27T00:06:19;102907.77;;;13.92;47.87
64316;BME280;50652;51.482;-0.580;2023-05-27T00:08:46;102909.04;;;13.71;47.91
64316;BME280;50652;51.482;-0.580;2023-05-27T00:11:13;102907.01;;;13.80;48.25
64316;BME280;50652;51.482;-0.580;2023-05-27T00:13:41;102904.39;;;13.42;48.68
64316;BME280;50652;51.482;-0.580;2023-05-27T00:16:08;102906.24;;;13.11;49.52
64316;BME280;50652;51.482;-0.580;2023-05-27T00:18:35;102908.28;;;12.88;49.69
64316;BME280;50652;51.482;-0.580;2023-05-27T00:21:04;102906.46;;;13.24;49.22
64316;BME280;50652;51.482;-0.580;2023-05-27T00:23:31;102903.44;;;13.52;49.14
64316;BME280;50652;51.482;-0.580;2023-05-27T00:25:58;102902.01;;;13.45;49.28
64316;BME280;50652;51.482;-0.580;2023-05-27T00:28:25;102902.97;;;13.73;49.32
64316;BME280;50652;51.482;-0.580;2023-05-27T00:30:52;102902.18;;;12.99;50.31
64316;BME280;50652;51.482;-0.580;2023-05-27T00:33:19;102897.18;;;13.30;49.64
64316;BME280;50652;51.482;-0.580;2023-05-27T00:35:46;102897.48;;;13.35;49.04
64316;BME280;50652;51.482;-0.580;2023-05-27T00:38:14;102891.89;;;12.97;49.92
64316;BME280;50652;51.482;-0.580;2023-05-27T00:40:41;102893.11;;;13.40;49.63
64316;BME280;50652;51.482;-0.580;2023-05-27T00:43:09;102886.23;;;13.92;48.88
64316;BME280;50652;51.482;-0.580;2023-05-27T00:45:35;102888.16;;;13.19;49.41
64316;BME280;50652;51.482;-0.580;2023-05-27T00:48:04;102884.39;;;13.16;49.55
64316;BME280;50652;51.482;-0.580;2023-05-27T00:50:31;102882.37;;;13.14;49.66
64316;BME280;50652;51.482;-0.580;2023-05-27T00:52:59;102878.19;;;13.27;49.15
64316;BME280;50652;51.482;-0.580;2023-05-27T00:55:25;102884.29;;;12.97;49.80
64316;BME280;50652;51.482;-0.580;2023-05-27T00:57:54;102880.34;;;13.10;50.46
64316;BME280;50652;51.482;-0.580;2023-05-27T01:00:21;102875.12;;;13.27;49.35
64316;BME280;50652;51.482;-0.580;2023-05-27T01:02:50;102876.23;;;12.99;50.43
64316;BME280;50652;51.482;-0.580;2023-05-27T01:05:18;102873.45;;;13.29;49.76
64316;BME280;50652;51.482;-0.580;2023-05-27T01:07:59;102874.00;;;12.85;50.39
64316;BME280;50652;51.482;-0.580;2023-05-27T01:10:36;102870.15;;;13.01;50.42
64316;BME280;50652;51.482;-0.580;2023-05-27T01:13:13;102869.34;;;13.06;50.51
64316;BME280;50652;51.482;-0.580;2023-05-27T01:15:42;102871.06;;;13.20;50.76
64316;BME280;50652;51.482;-0.580;2023-05-27T01:18:12;102872.85;;;12.61;51.35
64316;BME280;50652;51.482;-0.580;2023-05-27T01:20:43;102874.01;;;12.77;51.61
64316;BME280;50652;51.482;-0.580;2023-05-27T01:23:10;102870.10;;;12.23;52.43
64316;BME280;50652;51.482;-0.580;2023-05-27T01:25:37;102865.91;;;12.51;51.59
64316;BME280;50652;51.482;-0.580;2023-05-27T01:28:04;102863.53;;;12.94;50.65
64316;BME280;50652;51.482;-0.580;2023-05-27T01:30:31;102861.63;;;13.16;50.88
64316;BME280;50652;51.482;-0.580;2023-05-27T01:33:03;102857.33;;;13.28;50.39
64316;BME280;50652;51.482;-0.580;2023-05-27T01:35:38;102857.54;;;12.88;50.76
64316;BME280;50652;51.482;-0.580;2023-05-27T01:38:12;102856.38;;;13.38;50.34
64316;BME280;50652;51.482;-0.580;2023-05-27T01:40:40;102853.40;;;12.96;51.12
64316;BME280;50652;51.482;-0.580;2023-05-27T01:43:09;102855.68;;;12.38;51.86
64316;BME280;50652;51.482;-0.580;2023-05-27T01:45:36;102848.97;;;12.56;51.72
64316;BME280;50652;51.482;-0.580;2023-05-27T01:48:04;102842.87;;;12.93;51.62
64316;BME280;50652;51.482;-0.580;2023-05-27T01:50:31;102845.26;;;12.75;51.29
64316;BME280;50652;51.482;-0.580;2023-05-27T01:52:58;102848.48;;;12.28;52.66
64316;BME280;50652;51.482;-0.580;2023-05-27T01:55:26;102847.74;;;12.85;50.78
64316;BME280;50652;51.482;-0.580;2023-05-27T01:57:53;102847.32;;;12.89;51.14
64316;BME280;50652;51.482;-0.580;2023-05-27T02:00:20;102849.34;;;12.74;51.47
64316;BME280;50652;51.482;-0.580;2023-05-27T02:02:48;102847.88;;;13.04;50.98
64316;BME280;50652;51.482;-0.580;2023-05-27T02:05:16;102849.64;;;12.55;51.30
64316;BME280;50652;51.482;-0.580;2023-05-27T02:07:43;102851.22;;;12.78;50.39
64316;BME280;50652;51.482;-0.580;2023-05-27T02:10:11;102845.97;;;12.90;49.20
64316;BME280;50652;51.482;-0.580;2023-05-27T02:12:38;102843.80;;;13.33;49.09
64316;BME280;50652;51.482;-0.580;2023-05-27T02:15:06;102843.67;;;13.28;49.26
64316;BME280;50652;51.482;-0.580;2023-05-27T02:17:34;102842.68;;;13.44;48.88
64316;BME280;50652;51.482;-0.580;2023-05-27T02:20:04;102843.84;;;13.10;48.51
64316;BME280;50652;51.482;-0.580;2023-05-27T02:22:31;102838.38;;;12.91;48.68
64316;BME280;50652;51.482;-0.580;2023-05-27T02:24:59;102834.09;;;12.97;48.62
64316;BME280;50652;51.482;-0.580;2023-05-27T02:27:26;102830.33;;;13.42;48.90
64316;BME280;50652;51.482;-0.580;2023-05-27T02:29:53;102832.71;;;12.92;49.77
64316;BME280;50652;51.482;-0.580;2023-05-27T02:32:20;102834.12;;;12.86;50.93
64316;BME280;50652;51.482;-0.580;2023-05-27T02:34:47;102834.80;;;12.90;50.85
64316;BME280;50652;51.482;-0.580;2023-05-27T02:37:14;102834.76;;;12.30;51.78
64316;BME280;50652;51.482;-0.580;2023-05-27T02:39:41;102832.28;;;12.59;51.65
64316;BME280;50652;51.482;-0.580;2023-05-27T02:42:08;102829.80;;;11.70;53.33
64316;BME280;50652;51.482;-0.580;2023-05-27T02:44:35;102829.76;;;12.03;52.80
64316;BME280;50652;51.482;-0.580;2023-05-27T02:47:04;102826.00;;;11.88;53.12
64316;BME280;50652;51.482;-0.580;2023-05-27T02:49:32;102820.69;;;11.77;53.20
64316;BME280;50652;51.482;-0.580;2023-05-27T02:51:58;102821.47;;;11.88;53.18
64316;BME280;50652;51.482;-0.580;2023-05-27T02:54:26;102820.83;;;11.90;53.10
64316;BME280;50652;51.482;-0.580;2023-05-27T02:56:53;102822.06;;;11.67;53.58
64316;BME280;50652;51.482;-0.580;2023-05-27T02:59:20;102817.44;;;11.76;53.39
64316;BME280;50652;51.482;-0.580;2023-05-27T03:01:48;102815.17;;;11.77;54.09
64316;BME280;50652;51.482;-0.580;2023-05-27T03:04:14;102815.42;;;12.09;54.10
64316;BME280;50652;51.482;-0.580;2023-05-27T03:06:42;102814.60;;;11.76;54.69
64316;BME280;50652;51.482;-0.580;2023-05-27T03:09:10;102811.34;;;12.08;54.02
64316;BME280;50652;51.482;-0.580;2023-05-27T03:11:37;102812.95;;;11.64;54.86
64316;BME280;50652;51.482;-0.580;2023-05-27T03:14:05;102810.43;;;11.94;54.34
64316;BME280;50652;51.482;-0.580;2023-05-27T03:16:32;102807.71;;;11.90;53.93
64316;BME280;50652;51.482;-0.580;2023-05-27T03:18:59;102807.70;;;11.72;53.91
64316;BME280;50652;51.482;-0.580;2023-05-27T03:21:26;102805.71;;;11.60;53.92
64316;BME280;50652;51.482;-0.580;2023-05-27T03:23:54;102802.66;;;12.11;53.80
64316;BME280;50652;51.482;-0.580;2023-05-27T03:26:21;102801.14;;;12.09;53.71
64316;BME280;50652;51.482;-0.580;2023-05-27T03:28:49;102802.65;;;11.77;54.36
64316;BME280;50652;51.482;-0.580;2023-05-27T03:31:16;102805.01;;;11.70;53.69
64316;BME280;50652;51.482;-0.580;2023-05-27T03:33:43;102800.87;;;11.60;53.17
64316;BME280;50652;51.482;-0.580;2023-05-27T03:36:11;102801.18;;;11.65;53.20
64316;BME280;50652;51.482;-0.580;2023-05-27T03:38:38;102803.24;;;11.52;54.34
64316;BME280;50652;51.482;-0.580;2023-05-27T03:41:05;102805.32;;;11.96;53.82
64316;BME280;50652;51.482;-0.580;2023-05-27T03:43:32;102803.56;;;11.95;53.56
64316;BME280;50652;51.482;-0.580;2023-05-27T03:45:59;102805.16;;;11.89;53.41
64316;BME280;50652;51.482;-0.580;2023-05-27T03:48:26;102801.60;;;11.82;53.29
64316;BME280;50652;51.482;-0.580;2023-05-27T03:50:53;102805.73;;;11.64;53.40
64316;BME280;50652;51.482;-0.580;2023-05-27T03:53:21;102805.17;;;12.13;52.74
64316;BME280;50652;51.482;-0.580;2023-05-27T03:55:47;102803.50;;;11.73;53.12
64316;BME280;50652;51.482;-0.580;2023-05-27T03:58:15;102806.28;;;12.20;52.62
64316;BME280;50652;51.482;-0.580;2023-05-27T04:00:42;102803.77;;;11.63;53.72
64316;BME280;50652;51.482;-0.580;2023-05-27T04:03:09;102799.91;;;11.74;53.38
64316;BME280;50652;51.482;-0.580;2023-05-27T04:05:36;102799.95;;;11.97;52.59
64316;BME280;50652;51.482;-0.580;2023-05-27T04:08:04;102799.28;;;12.01;53.37
64316;BME280;50652;51.482;-0.580;2023-05-27T04:10:32;102801.46;;;11.20;54.31
64316;BME280;50652;51.482;-0.580;2023-05-27T04:12:58;102802.15;;;11.75;54.04
64316;BME280;50652;51.482;-0.580;2023-05-27T04:15:26;102802.83;;;12.09;53.01
64316;BME280;50652;51.482;-0.580;2023-05-27T04:17:53;102800.91;;;11.83;52.72
64316;BME280;50652;51.482;-0.580;2023-05-27T04:20:20;102800.83;;;11.41;54.49
64316;BME280;50652;51.482;-0.580;2023-05-27T04:22:47;102797.92;;;11.70;54.29
64316;BME280;50652;51.482;-0.580;2023-05-27T04:25:14;102798.75;;;11.51;54.98
64316;BME280;50652;51.482;-0.580;2023-05-27T04:27:41;102800.44;;;11.46;54.87
64316;BME280;50652;51.482;-0.580;2023-05-27T04:30:09;102802.62;;;11.50;55.01
64316;BME280;50652;51.482;-0.580;2023-05-27T04:32:38;102799.96;;;11.73;54.64
64316;BME280;50652;51.482;-0.580;2023-05-27T04:35:06;102799.33;;;11.67;55.03
64316;BME280;50652;51.482;-0.580;2023-05-27T04:37:33;102795.94;;;11.62;55.26
64316;BME280;50652;51.482;-0.580;2023-05-27T04:40:00;102795.28;;;11.47;56.01
64316;BME280;50652;51.482;-0.580;2023-05-27T04:42:27;102792.95;;;11.37;56.24
64316;BME280;50652;51.482;-0.580;2023-05-27T04:44:54;102791.24;;;11.55;56.09
64316;BME280;50652;51.482;-0.580;2023-05-27T04:47:21;102791.46;;;11.87;55.66
64316;BME280;50652;51.482;-0.580;2023-05-27T04:49:48;102790.99;;;11.54;56.09
64316;BME280;50652;51.482;-0.580;2023-05-27T04:52:16;102790.63;;;11.29;56.36
64316;BME280;50652;51.482;-0.580;2023-05-27T04:54:42;102788.35;;;11.39;56.95
64316;BME280;50652;51.482;-0.580;2023-05-27T04:57:09;102787.35;;;11.60;56.29
64316;BME280;50652;51.482;-0.580;2023-05-27T04:59:36;102791.89;;;11.70;56.14
64316;BME280;50652;51.482;-0.580;2023-05-27T05:02:04;102795.50;;;12.05;55.42
64316;BME280;50652;51.482;-0.580;2023-05-27T05:04:31;102794.66;;;11.40;57.17
64316;BME280;50652;51.482;-0.580;2023-05-27T05:06:58;102792.72;;;11.62;56.25
64316;BME280;50652;51.482;-0.580;2023-05-27T05:09:25;102794.99;;;11.57;57.18
64316;BME280;50652;51.482;-0.580;2023-05-27T05:11:52;102796.83;;;11.63;56.77
64316;BME280;50652;51.482;-0.580;2023-05-27T05:14:19;102796.59;;;12.10;55.94
64316;BME280;50652;51.482;-0.580;2023-05-27T05:16:46;102799.85;;;11.94;56.03
64316;BME280;50652;51.482;-0.580;2023-05-27T05:19:12;102795.28;;;12.12;55.69
64316;BME280;50652;51.482;-0.580;2023-05-27T05:21:40;102792.91;;;12.19;56.14
64316;BME280;50652;51.482;-0.580;2023-05-27T05:24:07;102792.46;;;11.77;57.47
64316;BME280;50652;51.482;-0.580;2023-05-27T05:26:34;102795.45;;;12.22;55.85
64316;BME280;50652;51.482;-0.580;2023-05-27T05:29:01;102795.90;;;11.78;56.58
64316;BME280;50652;51.482;-0.580;2023-05-27T05:31:29;102792.26;;;12.29;56.06
64316;BME280;50652;51.482;-0.580;2023-05-27T05:33:55;102785.78;;;12.26;55.85
64316;BME280;50652;51.482;-0.580;2023-05-27T05:36:23;102784.49;;;12.18;56.62
64316;BME280;50652;51.482;-0.580;2023-05-27T05:38:50;102787.57;;;11.65;57.78
64316;BME280;50652;51.482;-0.580;2023-05-27T05:41:17;102789.30;;;12.16;57.65
64316;BME280;50652;51.482;-0.580;2023-05-27T05:43:45;102791.27;;;12.53;56.48
64316;BME280;50652;51.482;-0.580;2023-05-27T05:46:12;102791.60;;;12.28;57.12
64316;BME280;50652;51.482;-0.580;2023-05-27T05:48:39;102794.32;;;12.86;56.90
64316;BME280;50652;51.482;-0.580;2023-05-27T05:51:06;102789.96;;;13.03;56.21
64316;BME280;50652;51.482;-0.580;2023-05-27T05:53:33;102793.56;;;13.22;56.87
64316;BME280;50652;51.482;-0.580;2023-05-27T05:56:00;102796.84;;;12.60;57.54
64316;BME280;50652;51.482;-0.580;2023-05-27T05:58:28;102793.69;;;12.93;56.61
64316;BME280;50652;51.482;-0.580;2023-05-27T06:00:55;102790.66;;;12.92;57.07
64316;BME280;50652;51.482;-0.580;2023-05-27T06:03:21;102791.53;;;13.25;56.55
64316;BME280;50652;51.482;-0.580;2023-05-27T06:05:50;102786.28;;;12.88;57.11
64316;BME280;50652;51.482;-0.580;2023-05-27T06:08:17;102781.17;;;13.21;56.58
64316;BME280;50652;51.482;-0.580;2023-05-27T06:10:45;102783.24;;;13.29;56.76
64316;BME280;50652;51.482;-0.580;2023-05-27T06:13:12;102783.59;;;13.36;56.58
64316;BME280;50652;51.482;-0.580;2023-05-27T06:15:39;102788.87;;;11.80;59.50
64316;BME280;50652;51.482;-0.580;2023-05-27T06:18:06;102787.57;;;12.18;59.88
64316;BME280;50652;51.482;-0.580;2023-05-27T06:20:33;102780.12;;;13.33;57.87
64316;BME280;50652;51.482;-0.580;2023-05-27T06:23:01;102775.61;;;13.01;57.16
64316;BME280;50652;51.482;-0.580;2023-05-27T06:25:28;102770.95;;;13.32;56.98
64316;BME280;50652;51.482;-0.580;2023-05-27T06:27:56;102768.08;;;13.38;56.96
64316;BME280;50652;51.482;-0.580;2023-05-27T06:30:23;102767.85;;;14.10;55.51
64316;BME280;50652;51.482;-0.580;2023-05-27T06:32:50;102763.38;;;13.67;56.22
64316;BME280;50652;51.482;-0.580;2023-05-27T06:35:18;102761.19;;;13.76;55.44
64316;BME280;50652;51.482;-0.580;2023-05-27T06:37:45;102763.14;;;14.09;54.62
64316;BME280;50652;51.482;-0.580;2023-05-27T06:40:13;102757.41;;;13.28;54.18
64316;BME280;50652;51.482;-0.580;2023-05-27T06:42:40;102755.41;;;13.71;54.72
64316;BME280;50652;51.482;-0.580;2023-05-27T06:45:08;102755.59;;;13.91;53.81
64316;BME280;50652;51.482;-0.580;2023-05-27T06:47:36;102750.86;;;13.81;53.96
64316;BME280;50652;51.482;-0.580;2023-05-27T06:50:03;102744.82;;;13.44;54.64
64316;BME280;50652;51.482;-0.580;2023-05-27T06:52:31;102744.82;;;13.95;53.62
64316;BME280;50652;51.482;-0.580;2023-05-27T06:54:58;102741.69;;;14.36;53.32
64316;BME280;50652;51.482;-0.580;2023-05-27T06:57:25;102738.49;;;14.71;52.80
64316;BME280;50652;51.482;-0.580;2023-05-27T06:59:53;102740.43;;;14.14;54.36
64316;BME280;50652;51.482;-0.580;2023-05-27T07:02:20;102735.18;;;14.59;52.51
64316;BME280;50652;51.482;-0.580;2023-05-27T07:04:47;102734.66;;;14.72;52.56
64316;BME280;50652;51.482;-0.580;2023-05-27T07:07:15;102731.19;;;14.51;52.08
64316;BME280;50652;51.482;-0.580;2023-05-27T07:09:42;102729.55;;;15.11;51.88
64316;BME280;50652;51.482;-0.580;2023-05-27T07:12:10;102725.42;;;14.99;51.40
64316;BME280;50652;51.482;-0.580;2023-05-27T07:14:37;102726.04;;;15.47;50.72
64316;BME280;50652;51.482;-0.580;2023-05-27T07:17:03;102723.57;;;15.32;50.68
64316;BME280;50652;51.482;-0.580;2023-05-27T07:19:30;102717.21;;;15.37;50.90
64316;BME280;50652;51.482;-0.580;2023-05-27T07:21:57;102716.73;;;14.56;50.83
64316;BME280;50652;51.482;-0.580;2023-05-27T07:24:25;102714.77;;;15.36;50.68
64316;BME280;50652;51.482;-0.580;2023-05-27T07:26:52;102717.03;;;15.26;50.21
64316;BME280;50652;51.482;-0.580;2023-05-27T07:29:19;102716.56;;;15.36;50.96
64316;BME280;50652;51.482;-0.580;2023-05-27T07:31:46;102715.77;;;15.41;49.58
64316;BME280;50652;51.482;-0.580;2023-05-27T07:34:14;102712.52;;;15.80;48.92
64316;BME280;50652;51.482;-0.580;2023-05-27T07:36:41;102708.21;;;14.76;49.96
64316;BME280;50652;51.482;-0.580;2023-05-27T07:39:08;102708.82;;;15.28;49.40
64316;BME280;50652;51.482;-0.580;2023-05-27T07:41:35;102704.53;;;15.40;48.79
64316;BME280;50652;51.482;-0.580;2023-05-27T07:44:02;102704.93;;;15.55;48.74
64316;BME280;50652;51.482;-0.580;2023-05-27T07:46:29;102705.81;;;15.48;48.38
64316;BME280;50652;51.482;-0.580;2023-05-27T07:48:57;102705.08;;;15.56;48.67
64316;BME280;50652;51.482;-0.580;2023-05-27T07:51:24;102703.36;;;15.72;48.07
64316;BME280;50652;51.482;-0.580;2023-05-27T07:53:51;102694.50;;;14.33;50.06
64316;BME280;50652;51.482;-0.580;2023-05-27T07:56:18;102690.18;;;14.54;49.58
64316;BME280;50652;51.482;-0.580;2023-05-27T07:58:45;102693.16;;;15.64;49.20
64316;BME280;50652;51.482;-0.580;2023-05-27T08:01:12;102688.49;;;14.83;49.58
64316;BME280;50652;51.482;-0.580;2023-05-27T08:03:40;102685.50;;;16.12;47.72
64316;BME280;50652;51.482;-0.580;2023-05-27T08:06:07;102684.57;;;16.24;47.43
64316;BME280;50652;51.482;-0.580;2023-05-27T08:08:34;102683.65;;;15.73;48.72
64316;BME280;50652;51.482;-0.580;2023-05-27T08:11:01;102679.25;;;15.93;47.87
64316;BME280;50652;51.482;-0.580;2023-05-27T08:13:27;102678.85;;;15.65;47.06
64316;BME280;50652;51.482;-0.580;2023-05-27T08:15:55;102677.75;;;16.57;46.95
64316;BME280;50652;51.482;-0.580;2023-05-27T08:18:22;102683.74;;;16.43;47.38
64316;BME280;50652;51.482;-0.580;2023-05-27T08:20:49;102676.80;;;16.50;46.15
64316;BME280;50652;51.482;-0.580;2023-05-27T08:23:18;102671.44;;;16.78;47.20
64316;BME280;50652;51.482;-0.580;2023-05-27T08:25:45;102673.13;;;17.35;45.60
64316;BME280;50652;51.482;-0.580;2023-05-27T08:28:12;102672.97;;;17.00;45.17
64316;BME280;50652;51.482;-0.580;2023-05-27T08:30:39;102670.74;;;17.31;44.57
64316;BME280;50652;51.482;-0.580;2023-05-27T08:33:06;102671.16;;;17.29;44.01
64316;BME280;50652;51.482;-0.580;2023-05-27T08:35:33;102668.57;;;17.35;44.33
64316;BME280;50652;51.482;-0.580;2023-05-27T08:38:00;102666.27;;;17.25;44.15
64316;BME280;50652;51.482;-0.580;2023-05-27T08:40:27;102661.66;;;17.06;45.55
64316;BME280;50652;51.482;-0.580;2023-05-27T08:42:54;102658.51;;;17.29;44.97
64316;BME280;50652;51.482;-0.580;2023-05-27T08:45:22;102665.62;;;16.94;46.04
64316;BME280;50652;51.482;-0.580;2023-05-27T08:47:49;102661.34;;;17.35;45.37
64316;BME280;50652;51.482;-0.580;2023-05-27T08:50:16;102654.46;;;17.92;44.10
64316;BME280;50652;51.482;-0.580;2023-05-27T08:52:46;102657.41;;;17.74;43.77
64316;BME280;50652;51.482;-0.580;2023-05-27T08:55:15;102654.86;;;17.34;43.57
64316;BME280;50652;51.482;-0.580;2023-05-27T08:57:46;102645.60;;;18.44;43.07
64316;BME280;50652;51.482;-0.580;2023-05-27T09:00:13;102644.78;;;18.30;42.91
64316;BME280;50652;51.482;-0.580;2023-05-27T09:02:40;102637.63;;;19.03;42.76
64316;BME280;50652;51.482;-0.580;2023-05-27T09:05:09;102637.27;;;17.76;42.80
64316;BME280;50652;51.482;-0.580;2023-05-27T09:07:36;102633.48;;;18.33;42.77
64316;BME280;50652;51.482;-0.580;2023-05-27T09:10:05;102633.91;;;18.69;41.38
64316;BME280;50652;51.482;-0.580;2023-05-27T09:12:32;102632.73;;;18.27;42.58
64316;BME280;50652;51.482;-0.580;2023-05-27T09:15:00;102636.86;;;18.52;41.03
64316;BME280;50652;51.482;-0.580;2023-05-27T09:17:27;102634.82;;;18.27;41.00
64316;BME280;50652;51.482;-0.580;2023-05-27T09:19:55;102627.15;;;18.83;41.13
64316;BME280;50652;51.482;-0.580;2023-05-27T09:22:23;102625.46;;;18.44;41.38
64316;BME280;50652;51.482;-0.580;2023-05-27T09:24:52;102618.43;;;18.24;41.39
64316;BME280;50652;51.482;-0.580;2023-05-27T09:27:23;102614.33;;;18.37;42.42
64316;BME280;50652;51.482;-0.580;2023-05-27T09:29:50;102609.27;;;18.62;41.02
64316;BME280;50652;51.482;-0.580;2023-05-27T09:32:24;102604.13;;;18.87;41.07
64316;BME280;50652;51.482;-0.580;2023-05-27T09:34:50;102600.14;;;18.91;40.80
64316;BME280;50652;51.482;-0.580;2023-05-27T09:37:17;102598.45;;;19.16;40.43
64316;BME280;50652;51.482;-0.580;2023-05-27T09:39:44;102602.34;;;18.85;40.28
64316;BME280;50652;51.482;-0.580;2023-05-27T09:42:11;102600.26;;;17.88;41.31
64316;BME280;50652;51.482;-0.580;2023-05-27T09:44:38;102594.82;;;18.79;40.85
64316;BME280;50652;51.482;-0.580;2023-05-27T09:47:05;102596.18;;;18.72;40.89
64316;BME280;50652;51.482;-0.580;2023-05-27T09:49:37;102595.28;;;19.02;40.90
64316;BME280;50652;51.482;-0.580;2023-05-27T09:52:05;102590.25;;;19.30;40.28
64316;BME280;50652;51.482;-0.580;2023-05-27T09:54:33;102590.15;;;18.88;41.35
64316;BME280;50652;51.482;-0.580;2023-05-27T09:57:00;102586.90;;;18.41;40.63
64316;BME280;50652;51.482;-0.580;2023-05-27T09:59:28;102583.30;;;19.37;40.17
64316;BME280;50652;51.482;-0.580;2023-05-27T10:01:56;102578.30;;;19.59;40.50
64316;BME280;50652;51.482;-0.580;2023-05-27T10:04:24;102584.08;;;19.49;40.40
64316;BME280;50652;51.482;-0.580;2023-05-27T10:06:52;102582.58;;;19.73;40.49
64316;BME280;50652;51.482;-0.580;2023-05-27T10:09:20;102582.75;;;18.46;40.94
64316;BME280;50652;51.482;-0.580;2023-05-27T10:11:47;102583.55;;;19.14;40.23
64316;BME280;50652;51.482;-0.580;2023-05-27T10:14:16;102578.14;;;19.63;40.08
64316;BME280;50652;51.482;-0.580;2023-05-27T10:16:52;102578.98;;;19.40;40.65
64316;BME280;50652;51.482;-0.580;2023-05-27T10:19:19;102576.37;;;19.35;40.80
64316;BME280;50652;51.482;-0.580;2023-05-27T10:21:46;102571.14;;;19.15;40.07
64316;BME280;50652;51.482;-0.580;2023-05-27T10:24:13;102562.80;;;18.32;40.66
64316;BME280;50652;51.482;-0.580;2023-05-27T10:26:41;102561.22;;;19.02;40.52
64316;BME280;50652;51.482;-0.580;2023-05-27T10:29:11;102561.10;;;19.09;40.63
64316;BME280;50652;51.482;-0.580;2023-05-27T10:31:44;102558.43;;;19.79;39.14
64316;BME280;50652;51.482;-0.580;2023-05-27T10:34:12;102545.44;;;20.20;39.18
64316;BME280;50652;51.482;-0.580;2023-05-27T10:36:40;102540.13;;;20.16;38.34
64316;BME280;50652;51.482;-0.580;2023-05-27T10:39:14;102538.97;;;20.01;39.24
64316;BME280;50652;51.482;-0.580;2023-05-27T10:41:42;102541.29;;;19.69;38.88
64316;BME280;50652;51.482;-0.580;2023-05-27T10:44:10;102536.75;;;19.11;39.54
64316;BME280;50652;51.482;-0.580;2023-05-27T10:46:40;102531.11;;;19.37;39.50
64316;BME280;50652;51.482;-0.580;2023-05-27T10:49:13;102525.10;;;20.19;39.36
64316;BME280;50652;51.482;-0.580;2023-05-27T10:51:40;102520.35;;;20.71;38.03
64316;BME280;50652;51.482;-0.580;2023-05-27T10:54:08;102520.03;;;19.53;38.90
64316;BME280;50652;51.482;-0.580;2023-05-27T10:56:35;102515.50;;;20.07;39.41
64316;BME280;50652;51.482;-0.580;2023-05-27T10:59:02;102512.34;;;20.18;37.54
64316;BME280;50652;51.482;-0.580;2023-05-27T11:01:33;102509.34;;;20.32;36.91
64316;BME280;50652;51.482;-0.580;2023-05-27T11:04:00;102508.02;;;20.54;37.41
64316;BME280;50652;51.482;-0.580;2023-05-27T11:06:27;102511.63;;;21.00;38.42
64316;BME280;50652;51.482;-0.580;2023-05-27T11:08:54;102510.98;;;20.97;36.83
64316;BME280;50652;51.482;-0.580;2023-05-27T11:11:21;102505.66;;;21.03;37.44
64316;BME280;50652;51.482;-0.580;2023-05-27T11:13:49;102508.67;;;20.69;38.12
64316;BME280;50652;51.482;-0.580;2023-05-27T11:16:17;102501.60;;;21.27;36.46
64316;BME280;50652;51.482;-0.580;2023-05-27T11:18:45;102504.77;;;20.85;37.59
64316;BME280;50652;51.482;-0.580;2023-05-27T11:21:14;102499.96;;;20.91;36.72
64316;BME280;50652;51.482;-0.580;2023-05-27T11:23:43;102503.64;;;20.90;36.72
64316;BME280;50652;51.482;-0.580;2023-05-27T11:26:12;102498.79;;;20.84;37.44
64316;BME280;50652;51.482;-0.580;2023-05-27T11:28:46;102489.88;;;21.45;36.37
64316;BME280;50652;51.482;-0.580;2023-05-27T11:31:13;102491.69;;;20.68;36.29
64316;BME280;50652;51.482;-0.580;2023-05-27T11:33:41;102488.71;;;20.97;36.52
64316;BME280;50652;51.482;-0.580;2023-05-27T11:36:12;102480.77;;;21.38;35.38
64316;BME280;50652;51.482;-0.580;2023-05-27T11:38:50;102476.40;;;19.91;36.74
64316;BME280;50652;51.482;-0.580;2023-05-27T11:41:19;102469.00;;;21.21;36.24
64316;BME280;50652;51.482;-0.580;2023-05-27T11:43:54;102465.28;;;21.60;36.45
64316;BME280;50652;51.482;-0.580;2023-05-27T11:46:22;102458.68;;;21.76;34.91
64316;BME280;50652;51.482;-0.580;2023-05-27T11:48:50;102453.79;;;21.27;36.86
64316;BME280;50652;51.482;-0.580;2023-05-27T11:51:17;102452.95;;;21.15;35.55
64316;BME280;50652;51.482;-0.580;2023-05-27T11:53:45;102454.32;;;21.23;35.94
64316;BME280;50652;51.482;-0.580;2023-05-27T11:56:13;102446.15;;;21.52;34.95
64316;BME280;50652;51.482;-0.580;2023-05-27T11:58:40;102441.07;;;21.16;35.31
64316;BME280;50652;51.482;-0.580;2023-05-27T12:01:07;102433.14;;;21.62;34.68
64316;BME280;50652;51.482;-0.580;2023-05-27T12:03:34;102431.14;;;21.74;34.14
64316;BME280;50652;51.482;-0.580;2023-05-27T12:06:01;102425.93;;;21.50;33.78
64316;BME280;50652;51.482;-0.580;2023-05-27T12:08:28;102425.02;;;21.56;34.27
64316;BME280;50652;51.482;-0.580;2023-05-27T12:10:55;102422.08;;;21.87;34.53
64316;BME280;50652;51.482;-0.580;2023-05-27T12:13:22;102417.12;;;22.23;34.05
64316;BME280;50652;51.482;-0.580;2023-05-27T12:15:49;102414.49;;;21.33;33.97
64316;BME280;50652;51.482;-0.580;2023-05-27T12:18:17;102417.04;;;21.73;35.09
64316;BME280;50652;51.482;-0.580;2023-05-27T12:20:45;102409.80;;;21.89;33.78
64316;BME280;50652;51.482;-0.580;2023-05-27T12:23:12;102402.96;;;21.50;34.07
64316;BME280;50652;51.482;-0.580;2023-05-27T12:25:39;102402.65;;;22.03;34.89
64316;BME280;50652;51.482;-0.580;2023-05-27T12:28:07;102401.50;;;22.67;34.12
64316;BME280;50652;51.482;-0.580;2023-05-27T12:30:34;102394.28;;;21.82;34.01
64316;BME280;50652;51.482;-0.580;2023-05-27T12:33:02;102396.89;;;22.09;32.81
64316;BME280;50652;51.482;-0.580;2023-05-27T12:35:29;102395.70;;;22.56;32.89
64316;BME280;50652;51.482;-0.580;2023-05-27T12:37:56;102395.01;;;23.02;33.30
64316;BME280;50652;51.482;-0.580;2023-05-27T12:40:25;102383.75;;;23.44;32.72
64316;BME280;50652;51.482;-0.580;2023-05-27T12:42:52;102380.48;;;23.49;33.16